Chaumont-Gistoux, Belgium
Current Conditions -  °F | °C
As of 6:25 AM on Sunday 23 Nov 2014 (Local Time) from EBBE Reporting Station
Clear Clear  
Wind Chill: 50°   Ceiling: Unl
Heat Index: 50°   Visibility: 6mi
Dew Point: 48°   Wind: 6mph
Humidity: 94%   Direction: 140°SE
Pressure: 30"   Gusts: NA
Location:  50.68°N, 4.72°E
Report Text: EBBE 230525Z AUTO 14005KT 9999 NCD 10/09 Q1016 BLU
Loading
Personal Weather Stations






























Interactive Weather Map New forecast layout! Learn more

10-Day Weather Forecast

Advertisements
Track Severe Weather on mobile